Time;durP1;ratioP1;P1;durP2;ratioP2;P2;SDS_P1;SDS_P2;PMS_P1;PMS_P2;Temp;Humidity;BMP_temperature;BMP_pressure;BME280_temperature;BME280_humidity;BME280_pressure;Samples;Min_cycle;Max_cycle;Signal;HPM_P1;HPM_P2
2022/12/18 00:01:32;;;;;;;24.2;12.8;;;;;;;-6.65;90.72363;945.7356;;;;
2022/12/18 00:04:02;;;;;;;25.6;13.3;;;;;;;-6.64;90.93652;945.7875;;;;
2022/12/18 00:06:35;;;;;;;24.5;12.6;;;;;;;-6.58;90.25684;945.9108;;;;
2022/12/18 00:09:03;;;;;;;23.8;13.1;;;;;;;-6.79;90.14844;945.9154;;;;
2022/12/18 00:11:35;;;;;;;21.3;12;;;;;;;-6.68;90.50977;945.9606;;;;
2022/12/18 00:14:06;;;;;;;25.3;14;;;;;;;-6.71;89.97754;945.9111;;;;
2022/12/18 00:16:41;;;;;;;24.1;13;;;;;;;-6.93;89.97461;946.0309;;;;
2022/12/18 00:19:20;;;;;;;27.3;14;;;;;;;-6.9;90.37695;945.9623;;;;
2022/12/18 00:21:45;;;;;;;25.9;13.9;;;;;;;-6.69;89.64355;945.9261;;;;
2022/12/18 00:24:26;;;;;;;21.6;12.2;;;;;;;-6.78;89.5459;945.8395;;;;
2022/12/18 00:26:51;;;;;;;22.7;12.4;;;;;;;-6.98;90.31348;945.9394;;;;
2022/12/18 00:29:19;;;;;;;22.2;12.6;;;;;;;-6.97;90.90918;946.0222;;;;
2022/12/18 00:31:44;;;;;;;20.1;10.3;;;;;;;-6.91;92.5332;945.9918;;;;
2022/12/18 00:34:14;;;;;;;21.8;11.6;;;;;;;-6.86;91.63184;945.9808;;;;
2022/12/18 00:36:49;;;;;;;22;11.7;;;;;;;-6.69;91.08008;946.0247;;;;
2022/12/18 00:39:16;;;;;;;20.7;12.2;;;;;;;-6.47;90.94043;945.9986;;;;
2022/12/18 00:44:09;;;;;;;27.5;15.7;;;;;;;-6.58;90.68652;946.1688;;;;
2022/12/18 00:46:35;;;;;;;29.3;16.7;;;;;;;-6.53;90.38086;946.0549;;;;
2022/12/18 00:49:03;;;;;;;23.9;12.4;;;;;;;-6.66;89.47363;946.1481;;;;
2022/12/18 00:51:59;;;;;;;20.5;10.7;;;;;;;-6.86;88.56543;946.2289;;;;
2022/12/18 00:54:24;;;;;;;16.6;9;;;;;;;-7.29;90.2666;946.1733;;;;
2022/12/18 00:56:55;;;;;;;17.3;9.4;;;;;;;-7.3;90.81348;946.2095;;;;
2022/12/18 00:59:24;;;;;;;17.2;9.8;;;;;;;-7.26;90.91113;946.264;;;;
2022/12/18 01:01:51;;;;;;;14.3;8.1;;;;;;;-7.17;91.55273;946.3298;;;;
2022/12/18 01:04:16;;;;;;;15.8;8.7;;;;;;;-7.36;92.80273;946.3878;;;;
2022/12/18 01:06:44;;;;;;;16.7;9.6;;;;;;;-7.21;92.76074;946.3398;;;;
2022/12/18 01:09:09;;;;;;;16.9;9.4;;;;;;;-6.99;93.00781;946.4492;;;;
2022/12/18 01:11:34;;;;;;;15.2;8.7;;;;;;;-6.81;92.96973;946.493;;;;
2022/12/18 01:14:04;;;;;;;15.9;8.1;;;;;;;-6.95;92.75391;946.5291;;;;
2022/12/18 01:16:29;;;;;;;17;9.3;;;;;;;-6.83;91.94629;946.5619;;;;
2022/12/18 01:19:01;;;;;;;16.9;9.4;;;;;;;-6.78;91.34277;946.6044;;;;
2022/12/18 01:21:26;;;;;;;18.4;9.6;;;;;;;-6.83;91.15723;946.613;;;;
2022/12/18 01:23:51;;;;;;;21.3;10.9;;;;;;;-6.72;90.45996;946.5889;;;;
2022/12/18 01:26:16;;;;;;;19.4;11;;;;;;;-6.85;89.80566;946.668;;;;
2022/12/18 01:28:45;;;;;;;17.6;9.8;;;;;;;-7.03;90.70898;946.7075;;;;
2022/12/18 01:31:09;;;;;;;17.4;9.4;;;;;;;-7.15;91.625;946.7405;;;;
2022/12/18 01:33:38;;;;;;;16.3;8;;;;;;;-6.98;91.68457;946.7272;;;;
2022/12/18 01:36:03;;;;;;;15.6;8.8;;;;;;;-6.85;90.28809;946.7625;;;;
2022/12/18 01:38:33;;;;;;;13.9;7.4;;;;;;;-6.72;90.52344;946.812;;;;
2022/12/18 01:40:58;;;;;;;12;7.3;;;;;;;-6.66;90.3291;946.7981;;;;
2022/12/18 01:43:25;;;;;;;12.1;7.4;;;;;;;-6.46;90.44922;946.7349;;;;
2022/12/18 01:46:44;;;;;;;11.2;6.6;;;;;;;-6.52;92.6416;946.759;;;;
2022/12/18 01:49:13;;;;;;;12.8;7.4;;;;;;;-6.44;90.43164;946.8058;;;;
2022/12/18 01:51:38;;;;;;;11.8;7.2;;;;;;;-6.64;89.99512;946.8127;;;;
2022/12/18 01:56:51;;;;;;;13.5;8;;;;;;;-6.81;89.34473;946.8777;;;;
2022/12/18 01:59:20;;;;;;;12.6;7.8;;;;;;;-7.17;89.88867;946.8627;;;;
2022/12/18 02:05:28;;;;;;;14.4;8.3;;;;;;;-7.33;89.42871;946.9066;;;;
2022/12/18 02:07:53;;;;;;;12.9;7.6;;;;;;;-7.41;92.46484;946.7825;;;;
2022/12/18 02:10:21;;;;;;;12.1;6.6;;;;;;;-7.01;92.37793;946.8418;;;;
2022/12/18 02:12:46;;;;;;;11.1;6.7;;;;;;;-6.64;91.9248;946.6708;;;;
2022/12/18 02:15:13;;;;;;;13.3;7.2;;;;;;;-6.87;91.34473;946.7173;;;;
2022/12/18 02:17:38;;;;;;;14.7;7.6;;;;;;;-6.81;91.0957;946.6039;;;;
2022/12/18 02:20:04;;;;;;;12.3;8;;;;;;;-6.73;90.20215;946.7166;;;;
2022/12/18 02:22:34;;;;;;;12.9;7;;;;;;;-6.87;89.85645;946.6704;;;;
2022/12/18 02:24:59;;;;;;;11.5;6.9;;;;;;;-6.76;91.41504;946.6489;;;;
2022/12/18 02:31:13;;;;;;;14.1;8.3;;;;;;;-7.12;89.3418;946.6035;;;;
2022/12/18 02:33:38;;;;;;;13.1;7.3;;;;;;;-7.41;89.88184;946.6232;;;;
2022/12/18 02:36:03;;;;;;;11.8;7.1;;;;;;;-7.21;88.93945;946.7493;;;;
2022/12/18 02:38:32;;;;;;;10.7;6.4;;;;;;;-7.45;89.51074;946.6474;;;;
2022/12/18 02:40:59;;;;;;;11.6;6.2;;;;;;;-7.46;90.55957;946.7183;;;;
2022/12/18 02:43:24;;;;;;;14.7;7.5;;;;;;;-7.33;91.24609;946.7606;;;;
2022/12/18 02:45:49;;;;;;;16.3;8.7;;;;;;;-7.31;91.64355;946.7296;;;;
2022/12/18 02:48:16;;;;;;;11.8;6.9;;;;;;;-7.29;92.97461;946.7427;;;;
2022/12/18 02:51:24;;;;;;;12.3;6.9;;;;;;;-7.07;91.71973;946.8312;;;;
2022/12/18 02:53:49;;;;;;;14.5;7.2;;;;;;;-7.09;90.50879;946.8547;;;;
2022/12/18 02:56:14;;;;;;;11.7;7;;;;;;;-7.24;89.6875;946.8602;;;;
2022/12/18 02:58:39;;;;;;;13.5;7.7;;;;;;;-7.03;89.07617;946.7796;;;;
2022/12/18 03:01:04;;;;;;;10.8;6.4;;;;;;;-7.17;89.40723;946.8013;;;;
2022/12/18 03:03:32;;;;;;;12.5;6.6;;;;;;;-7.06;89.62988;946.9364;;;;
2022/12/18 03:09:39;;;;;;;12.1;6.5;;;;;;;-7.23;88.84766;947.0189;;;;
2022/12/18 03:14:30;;;;;;;11.5;5.5;;;;;;;-7.45;90.00293;946.9511;;;;
2022/12/18 03:16:58;;;;;;;9.9;5.4;;;;;;;-7.29;90.41113;946.934;;;;
2022/12/18 03:19:23;;;;;;;8;5.2;;;;;;;-7.1;90.93359;946.9256;;;;
2022/12/18 03:21:48;;;;;;;10.1;5.6;;;;;;;-6.98;91.32129;946.8706;;;;
2022/12/18 03:24:13;;;;;;;8.4;5.3;;;;;;;-6.86;90.83203;946.8096;;;;
2022/12/18 03:26:39;;;;;;;10.9;6.1;;;;;;;-6.94;90.13672;946.8066;;;;
2022/12/18 03:29:10;;;;;;;12.7;7;;;;;;;-6.89;89.78516;946.8415;;;;
2022/12/18 03:31:35;;;;;;;7.6;4.4;;;;;;;-7.01;92.25684;946.8423;;;;
2022/12/18 03:34:00;;;;;;;7.8;4.9;;;;;;;-6.86;91.22656;946.8359;;;;
2022/12/18 03:36:25;;;;;;;9.1;5;;;;;;;-6.73;90.30273;946.8033;;;;
2022/12/18 03:38:50;;;;;;;9.7;5.2;;;;;;;-6.8;90.14648;946.7894;;;;
2022/12/18 03:41:58;;;;;;;7.2;4.7;;;;;;;-6.68;89.17383;946.837;;;;
2022/12/18 03:44:24;;;;;;;8.7;5.3;;;;;;;-6.46;91.31543;946.7983;;;;
2022/12/18 03:46:49;;;;;;;9.8;5.7;;;;;;;-6.53;90.55371;946.8036;;;;
2022/12/18 03:49:15;;;;;;;8.7;5.2;;;;;;;-6.38;90.57715;946.7478;;;;
2022/12/18 03:51:41;;;;;;;7.5;5;;;;;;;-6.54;90.03906;946.7795;;;;
2022/12/18 03:54:06;;;;;;;8.9;4.9;;;;;;;-6.8;89.11426;946.793;;;;
2022/12/18 03:56:31;;;;;;;8.7;5.4;;;;;;;-6.8;88.12988;946.7733;;;;
2022/12/18 03:58:56;;;;;;;10;5.1;;;;;;;-7.15;89.00781;946.8376;;;;
2022/12/18 04:03:10;;;;;;;7.6;4.7;;;;;;;-7.37;89.97949;946.7194;;;;
2022/12/18 04:05:35;;;;;;;6.9;4.6;;;;;;;-7.4;90.60547;946.8616;;;;
2022/12/18 04:08:00;;;;;;;8.3;5.1;;;;;;;-7.44;91.38574;946.868;;;;
2022/12/18 04:10:25;;;;;;;11;5.5;;;;;;;-7.26;90.94434;946.7344;;;;
2022/12/18 04:12:50;;;;;;;10.3;6;;;;;;;-7.21;91;946.8599;;;;
2022/12/18 04:15:21;;;;;;;10.3;5.7;;;;;;;-7.4;90.8252;946.9131;;;;
2022/12/18 04:17:46;;;;;;;9.9;5.7;;;;;;;-7.36;90.17773;946.942;;;;
2022/12/18 04:20:11;;;;;;;8.3;5;;;;;;;-7.56;90.6709;946.9838;;;;
2022/12/18 04:22:45;;;;;;;7.8;4.7;;;;;;;-7.26;92.77051;946.9986;;;;
2022/12/18 04:25:13;;;;;;;9.2;5.3;;;;;;;-7.3;90.97754;947.0042;;;;
2022/12/18 04:27:41;;;;;;;9.3;5;;;;;;;-7.35;90.30078;946.9197;;;;
2022/12/18 04:30:06;;;;;;;8.1;4.8;;;;;;;-7.48;90.55566;946.8943;;;;
2022/12/18 04:32:31;;;;;;;7.7;5;;;;;;;-7.55;90.82422;946.9662;;;;
2022/12/18 04:34:56;;;;;;;6.4;4.2;;;;;;;-7.48;91.49805;947.0293;;;;
2022/12/18 04:37:28;;;;;;;8.2;5.3;;;;;;;-7.36;92.7373;946.9519;;;;
2022/12/18 04:39:53;;;;;;;8.5;5.1;;;;;;;-7.12;94.62109;946.9567;;;;
2022/12/18 04:42:21;;;;;;;7.5;5;;;;;;;-6.78;94.03027;946.9578;;;;
2022/12/18 04:45:01;;;;;;;8.5;4.5;;;;;;;-6.94;90.99121;947.0181;;;;
2022/12/18 04:50:55;;;;;;;5.3;3.8;;;;;;;-7.28;90.68652;946.9395;;;;
2022/12/18 04:53:23;;;;;;;5.6;4;;;;;;;-7.12;91.24805;946.9026;;;;
2022/12/18 04:55:48;;;;;;;7.6;3.9;;;;;;;-6.88;91.45215;946.8729;;;;
2022/12/18 04:58:19;;;;;;;6.7;3.6;;;;;;;-6.81;90.95313;946.941;;;;
2022/12/18 05:01:12;;;;;;;4.7;3.2;;;;;;;-6.9;90.82617;946.9422;;;;
2022/12/18 05:03:38;;;;;;;6.5;4.1;;;;;;;-6.54;91.01465;946.9778;;;;
2022/12/18 05:06:03;;;;;;;5.7;3.9;;;;;;;-6.41;91.50293;946.9975;;;;
2022/12/18 05:08:28;;;;;;;5.1;3.6;;;;;;;-6.36;91.5127;947.0538;;;;
2022/12/18 05:10:53;;;;;;;4.9;3.6;;;;;;;-6.14;90.5752;947.1492;;;;
2022/12/18 05:13:19;;;;;;;7.7;4.5;;;;;;;-6.51;88.66309;947.0471;;;;
2022/12/18 05:15:52;;;;;;;7.8;5.1;;;;;;;-7.01;90.37305;947.1467;;;;
2022/12/18 05:18:23;;;;;;;7.5;5;;;;;;;-6.86;91.08398;947.1002;;;;
2022/12/18 05:20:48;;;;;;;8.9;5.1;;;;;;;-6.82;90.78906;947.0087;;;;
2022/12/18 05:23:13;;;;;;;8.4;4.9;;;;;;;-6.8;90.23242;947.1265;;;;
2022/12/18 05:25:38;;;;;;;9.6;5.6;;;;;;;-6.62;89.47266;947.1542;;;;
2022/12/18 05:28:03;;;;;;;6.6;4.2;;;;;;;-6.67;89.38477;947.1318;;;;
2022/12/18 05:30:54;;;;;;;5.7;3.9;;;;;;;-6.52;89.11914;947.0736;;;;
2022/12/18 05:38:02;;;;;;;6;3.5;;;;;;;-6.09;90.87891;947.2559;;;;
2022/12/18 05:40:33;;;;;;;10.3;5.4;;;;;;;-6.39;89.51074;947.3781;;;;
2022/12/18 05:43:01;;;;;;;6.7;5;;;;;;;-6.47;89.97559;947.413;;;;
2022/12/18 05:45:27;;;;;;;6.3;4.1;;;;;;;-6.32;89.84473;947.3738;;;;
2022/12/18 05:48:00;;;;;;;7;4;;;;;;;-6.26;88.03418;947.4769;;;;
2022/12/18 05:50:30;;;;;;;6.6;3.9;;;;;;;-6.76;88.72949;947.5336;;;;
2022/12/18 05:52:55;;;;;;;4.7;3.3;;;;;;;-6.86;89.80371;947.5341;;;;
2022/12/18 05:55:25;;;;;;;6.8;3.5;;;;;;;-6.65;89.88379;947.4933;;;;
2022/12/18 05:57:50;;;;;;;4.6;3.1;;;;;;;-6.54;91.40723;947.5143;;;;
2022/12/18 06:00:19;;;;;;;5.4;3.4;;;;;;;-5.73;90.33398;947.5684;;;;
2022/12/18 06:02:44;;;;;;;7;3.6;;;;;;;-5.9;88.30859;947.6308;;;;
2022/12/18 06:05:10;;;;;;;4.7;3.3;;;;;;;-6.11;87.15527;947.5481;;;;
2022/12/18 06:07:35;;;;;;;6.2;3.2;;;;;;;-6.25;88.15723;947.6037;;;;
2022/12/18 06:10:06;;;;;;;6.1;3.1;;;;;;;-6.16;89.29785;947.5637;;;;
2022/12/18 06:12:36;;;;;;;4.2;2.9;;;;;;;-5.9;88.66016;947.4875;;;;
2022/12/18 06:15:02;;;;;;;4.4;3.1;;;;;;;-5.66;88.61133;947.6138;;;;
2022/12/18 06:17:26;;;;;;;4.6;2.9;;;;;;;-5.71;88.25;947.6802;;;;
2022/12/18 06:19:54;;;;;;;5.5;3.3;;;;;;;-5.89;88.48438;947.6725;;;;
2022/12/18 06:22:19;;;;;;;6.8;4.1;;;;;;;-6.07;88.07422;947.6192;;;;
2022/12/18 06:24:49;;;;;;;8.8;5.3;;;;;;;-6.47;87.10156;947.7704;;;;
2022/12/18 06:27:33;;;;;;;8.8;5.3;;;;;;;-6.67;88.16797;947.7291;;;;
2022/12/18 06:29:57;;;;;;;7.9;5;;;;;;;-6.75;89.32324;947.7198;;;;
2022/12/18 06:32:25;;;;;;;6.9;4.2;;;;;;;-6.72;90.18359;947.673;;;;
2022/12/18 06:34:51;;;;;;;7.8;4.8;;;;;;;-6.69;90.5957;947.6711;;;;
2022/12/18 06:40:06;;;;;;;8.6;5.9;;;;;;;-6.55;90.6709;947.7205;;;;
2022/12/18 06:42:32;;;;;;;11.1;6.4;;;;;;;-6.42;89.09863;947.7356;;;;
2022/12/18 06:48:46;;;;;;;7.7;4.4;;;;;;;-6.6;88.54297;947.6742;;;;
2022/12/18 06:51:11;;;;;;;6.8;4.5;;;;;;;-6.62;89.61523;947.7949;;;;
2022/12/18 06:53:39;;;;;;;7.6;4.8;;;;;;;-6.85;89.07129;947.7228;;;;
2022/12/18 06:56:05;;;;;;;8.3;4.2;;;;;;;-7.02;88.82617;947.7402;;;;
2022/12/18 06:58:36;;;;;;;7.9;4.6;;;;;;;-6.85;89.24707;947.7452;;;;
2022/12/18 07:01:05;;;;;;;7.2;3.8;;;;;;;-6.86;90.58203;947.787;;;;
2022/12/18 07:03:39;;;;;;;6.2;3.7;;;;;;;-6.98;90.06152;947.8108;;;;
2022/12/18 07:06:12;;;;;;;6.8;4.3;;;;;;;-6.83;89.97168;947.8976;;;;
2022/12/18 07:08:37;;;;;;;9.2;5.3;;;;;;;-6.71;90.52539;947.806;;;;
2022/12/18 07:11:02;;;;;;;8;4.6;;;;;;;-6.24;91.32129;947.8354;;;;
2022/12/18 07:13:28;;;;;;;11.2;6.2;;;;;;;-6.3;88.27734;947.8856;;;;
2022/12/18 07:15:56;;;;;;;12;7.4;;;;;;;-6.77;88.65234;947.9916;;;;
2022/12/18 07:18:23;;;;;;;11.6;7.4;;;;;;;-6.67;89.6123;947.9222;;;;
2022/12/18 07:24:26;;;;;;;15.6;10;;;;;;;-6.32;90.24805;948.0955;;;;
2022/12/18 07:27:48;;;;;;;19.7;10.9;;;;;;;-6.33;88.15234;948.1194;;;;
2022/12/18 07:30:20;;;;;;;13.5;8.7;;;;;;;-6.55;88.7959;948.228;;;;
2022/12/18 07:32:48;;;;;;;12.2;7.4;;;;;;;-6.45;89.61914;948.1967;;;;
2022/12/18 07:35:20;;;;;;;11.6;6.9;;;;;;;-6.41;90.46094;948.1942;;;;
2022/12/18 07:37:50;;;;;;;16.8;8.1;;;;;;;-6.2;89.68262;948.1312;;;;
2022/12/18 07:40:15;;;;;;;16.9;8.8;;;;;;;-6.26;90.04492;948.1365;;;;
2022/12/18 07:42:48;;;;;;;18.2;10.3;;;;;;;-6.52;89.75586;948.2147;;;;
2022/12/18 07:45:15;;;;;;;22.4;12;;;;;;;-6.47;89.1416;948.2156;;;;
2022/12/18 07:47:41;;;;;;;19.1;10.2;;;;;;;-6.41;90.64746;948.2252;;;;
2022/12/18 07:50:05;;;;;;;8.3;4.5;;;;;;;-6.05;92.05469;948.2188;;;;
2022/12/18 07:52:32;;;;;;;15.4;8.5;;;;;;;-5.95;89.57324;948.2517;;;;
2022/12/18 07:54:58;;;;;;;15.7;9.8;;;;;;;-5.85;89.19922;948.2494;;;;
2022/12/18 07:59:48;;;;;;;13.3;8;;;;;;;-6.06;88.93457;948.3358;;;;
2022/12/18 08:02:16;;;;;;;18.2;10;;;;;;;-5.98;89.87305;948.321;;;;
2022/12/18 08:05:16;;;;;;;17.1;10.2;;;;;;;-5.85;89.49512;948.2924;;;;
2022/12/18 08:07:46;;;;;;;16.9;10.5;;;;;;;-5.69;88.7373;948.3459;;;;
2022/12/18 08:10:11;;;;;;;13.1;7.5;;;;;;;-5.4;87.9082;948.2738;;;;
2022/12/18 08:12:40;;;;;;;12.2;7.9;;;;;;;-4.96;85.34863;948.2819;;;;
2022/12/18 08:15:05;;;;;;;11.2;8.3;;;;;;;-4.04;82.69043;948.2244;;;;
2022/12/18 08:17:33;;;;;;;18.7;12;;;;;;;-3.48;79.14453;948.23;;;;
2022/12/18 08:20:04;;;;;;;14.3;10;;;;;;;-2.95;77.02148;948.1103;;;;
2022/12/18 08:22:51;;;;;;;19.5;12.1;;;;;;;-2.45;74.7207;948.2693;;;;
2022/12/18 08:25:20;;;;;;;16.6;10;;;;;;;-2.07;72.26172;948.231;;;;
2022/12/18 08:27:45;;;;;;;12;8.1;;;;;;;-2.12;72.47559;948.2411;;;;
2022/12/18 08:30:33;;;;;;;20.2;12;;;;;;;-1.29;71.26367;948.2478;;;;
2022/12/18 08:32:58;;;;;;;37.8;21.8;;;;;;;-0.39;66.55273;948.2972;;;;
2022/12/18 08:36:37;;;;;;;17;12.8;;;;;;;-0.81;68.04297;948.2743;;;;
2022/12/18 08:39:10;;;;;;;17.7;15.8;;;;;;;-1.2;70.04492;948.2772;;;;
2022/12/18 08:41:39;;;;;;;25.7;15.1;;;;;;;-2;72.05176;948.3372;;;;
2022/12/18 08:46:30;;;;;;;30.2;16.4;;;;;;;-3.76;78.82617;948.399;;;;
2022/12/18 08:48:55;;;;;;;28.5;15.4;;;;;;;-3.89;80.58008;948.3815;;;;
2022/12/18 08:51:20;;;;;;;20.8;10.8;;;;;;;-3.77;81.98438;948.355;;;;
2022/12/18 08:53:46;;;;;;;5.6;3.1;;;;;;;-3.58;82.28418;948.3152;;;;
2022/12/18 08:56:10;;;;;;;7.7;5.6;;;;;;;-3.46;82.78418;948.3437;;;;
2022/12/18 08:58:40;;;;;;;7.8;5.4;;;;;;;-3.47;82.8252;948.3378;;;;
2022/12/18 09:01:06;;;;;;;15.2;10.9;;;;;;;-3.46;83.01465;948.2598;;;;
2022/12/18 09:03:39;;;;;;;17;11;;;;;;;-3.63;83.56738;948.262;;;;
2022/12/18 09:06:06;;;;;;;10.9;6.8;;;;;;;-3.58;84.44922;948.2342;;;;
2022/12/18 09:08:31;;;;;;;10.6;6.6;;;;;;;-3.55;84.14551;948.249;;;;
2022/12/18 09:10:56;;;;;;;19.5;11.8;;;;;;;-3.64;84.19336;948.293;;;;
2022/12/18 09:13:29;;;;;;;17.6;11;;;;;;;-3.63;84.8584;948.2595;;;;
2022/12/18 09:15:59;;;;;;;16.8;10.6;;;;;;;-3.46;84.99414;948.1683;;;;
2022/12/18 09:18:28;;;;;;;16.8;10.1;;;;;;;-3.53;85.64258;948.2349;;;;
2022/12/18 09:20:53;;;;;;;21.9;13.6;;;;;;;-3.53;85.53223;948.2659;;;;
2022/12/18 09:23:18;;;;;;;20.2;13.2;;;;;;;-3.57;86.01074;948.2239;;;;
2022/12/18 09:25:48;;;;;;;66.1;33;;;;;;;-3.65;86.41113;948.2162;;;;
2022/12/18 09:28:13;;;;;;;15.8;10.3;;;;;;;-3.84;86.46094;948.2615;;;;
2022/12/18 09:30:38;;;;;;;17.7;10.2;;;;;;;-3.73;86.9248;948.2598;;;;
2022/12/18 09:33:06;;;;;;;22.5;12.4;;;;;;;-3.66;87.24023;948.2451;;;;
2022/12/18 09:35:32;;;;;;;19.5;9.9;;;;;;;-3.43;87.44141;948.2184;;;;
2022/12/18 09:37:57;;;;;;;13.1;8.1;;;;;;;-3.02;86.26563;948.0891;;;;
2022/12/18 09:40:23;;;;;;;5.2;3.6;;;;;;;-2.67;85.11133;948.1033;;;;
2022/12/18 09:42:51;;;;;;;7.1;4.7;;;;;;;-2.34;83.64648;948.0389;;;;
2022/12/18 09:45:25;;;;;;;19.5;10.9;;;;;;;-2.22;83.61523;948.1387;;;;
2022/12/18 09:47:51;;;;;;;20.2;12;;;;;;;-2.37;84.92676;948.1552;;;;
2022/12/18 09:50:16;;;;;;;13.1;8.5;;;;;;;-2.53;85.50195;948.1289;;;;
2022/12/18 09:52:44;;;;;;;14.3;8.9;;;;;;;-2.57;86.05957;948.1394;;;;
2022/12/18 09:55:10;;;;;;;14.1;9.5;;;;;;;-2.37;86.08789;948.1152;;;;
2022/12/18 09:57:36;;;;;;;25.4;14.4;;;;;;;-2.36;85.91406;947.9734;;;;
2022/12/18 10:00:02;;;;;;;15.4;10.1;;;;;;;-2.44;86.43066;947.9052;;;;
2022/12/18 10:02:35;;;;;;;10.3;6.7;;;;;;;-2.42;86.23535;947.9238;;;;
2022/12/18 10:05:00;;;;;;;13.4;7.8;;;;;;;-2.26;86.60059;947.9069;;;;
2022/12/18 10:07:26;;;;;;;13.4;8.6;;;;;;;-2.08;86.32813;947.9684;;;;
2022/12/18 10:09:52;;;;;;;19.5;11.6;;;;;;;-2.06;86.1084;948.0032;;;;
2022/12/18 10:12:18;;;;;;;16.9;11.8;;;;;;;-1.85;85.46484;948.0246;;;;
2022/12/18 10:14:43;;;;;;;25;13.5;;;;;;;-1.77;84.52539;947.9719;;;;
2022/12/18 10:17:12;;;;;;;18.3;10.8;;;;;;;-1.71;85.33691;947.9537;;;;
2022/12/18 10:19:37;;;;;;;18.7;10.9;;;;;;;-1.66;83.9834;947.8808;;;;
2022/12/18 10:22:03;;;;;;;21.2;12.2;;;;;;;-1.74;84.63281;947.8864;;;;
2022/12/18 10:24:28;;;;;;;21;11.1;;;;;;;-1.7;85.5293;947.8003;;;;
2022/12/18 10:26:53;;;;;;;15.7;9.5;;;;;;;-1.34;84.8125;947.8981;;;;
2022/12/18 10:29:18;;;;;;;12.6;7.5;;;;;;;-1.15;84.17285;947.8997;;;;
2022/12/18 10:31:43;;;;;;;8.7;6.1;;;;;;;-1.11;84.02637;947.926;;;;
2022/12/18 10:34:09;;;;;;;5.3;3.4;;;;;;;-0.97;81.81836;947.8699;;;;
2022/12/18 10:36:34;;;;;;;4.7;3.3;;;;;;;-0.69;81.21777;947.9065;;;;
2022/12/18 10:39:02;;;;;;;9.2;6.1;;;;;;;-0.66;82.21484;947.9094;;;;
2022/12/18 10:41:27;;;;;;;9.1;6.2;;;;;;;-0.58;83.24121;947.7628;;;;
2022/12/18 10:43:56;;;;;;;11.2;6.8;;;;;;;-0.61;82.69141;947.843;;;;
2022/12/18 10:46:23;;;;;;;15.9;9.5;;;;;;;-0.62;83.80176;947.7886;;;;
2022/12/18 10:48:48;;;;;;;14.9;9;;;;;;;;;;;;;
2022/12/18 10:51:13;;;;;;;20;10.1;;;;;;;;;;;;;
2022/12/18 10:53:39;;;;;;;12.8;8.3;;;;;;;;;;;;;
2022/12/18 10:56:06;;;;;;;8.9;6;;;;;;;;;;;;;
2022/12/18 10:58:32;;;;;;;8.3;5.2;;;;;;;;;;;;;
2022/12/18 11:00:57;;;;;;;8.3;5.3;;;;;;;;;;;;;
2022/12/18 11:03:23;;;;;;;7;4.9;;;;;;;;;;;;;
2022/12/18 11:05:48;;;;;;;11.6;6.2;;;;;;;;;;;;;
2022/12/18 11:08:13;;;;;;;9.4;5.3;;;;;;;;;;;;;
2022/12/18 11:10:39;;;;;;;4.9;3.1;;;;;;;;;;;;;
2022/12/18 11:13:04;;;;;;;7.5;3.8;;;;;;;;;;;;;
2022/12/18 11:15:29;;;;;;;5.8;4.2;;;;;;;;;;;;;
2022/12/18 11:17:56;;;;;;;4.9;3.2;;;;;;;;;;;;;
2022/12/18 11:20:22;;;;;;;8.3;5.3;;;;;;;;;;;;;
2022/12/18 11:22:46;;;;;;;8.5;5.1;;;;;;;;;;;;;
2022/12/18 11:25:12;;;;;;;13.4;8;;;;;;;;;;;;;
2022/12/18 11:27:37;;;;;;;6;4.4;;;;;;;;;;;;;
2022/12/18 11:30:05;;;;;;;9;4.7;;;;;;;;;;;;;
2022/12/18 11:32:30;;;;;;;6.4;4.7;;;;;;;;;;;;;
2022/12/18 11:34:55;;;;;;;7.9;4.7;;;;;;;;;;;;;
2022/12/18 11:37:21;;;;;;;7.8;4.9;;;;;;;;;;;;;
2022/12/18 11:39:46;;;;;;;16.4;8.4;;;;;;;;;;;;;
2022/12/18 11:42:11;;;;;;;9.1;5;;;;;;;;;;;;;
2022/12/18 11:44:36;;;;;;;10.1;6;;;;;;;;;;;;;
2022/12/18 11:47:01;;;;;;;14.9;7.5;;;;;;;;;;;;;
2022/12/18 11:49:27;;;;;;;8.3;4.1;;;;;;;;;;;;;
2022/12/18 11:51:52;;;;;;;9.4;4.4;;;;;;;;;;;;;
2022/12/18 11:54:17;;;;;;;7.8;4.3;;;;;;;;;;;;;
2022/12/18 11:56:44;;;;;;;8.5;4.2;;;;;;;;;;;;;
2022/12/18 11:59:10;;;;;;;17.2;7.9;;;;;;;;;;;;;
2022/12/18 12:01:35;;;;;;;16.2;7.6;;;;;;;;;;;;;
2022/12/18 12:04:03;;;;;;;10.2;8.1;;;;;;;;;;;;;
2022/12/18 12:06:29;;;;;;;10.1;6.3;;;;;;;;;;;;;
2022/12/18 12:08:54;;;;;;;8.5;5.2;;;;;;;;;;;;;
2022/12/18 12:11:19;;;;;;;8.8;5.2;;;;;;;;;;;;;
2022/12/18 12:13:44;;;;;;;8.7;5;;;;;;;;;;;;;
2022/12/18 12:16:09;;;;;;;5.3;3.9;;;;;;;;;;;;;
2022/12/18 12:18:34;;;;;;;6.2;4.3;;;;;;;;;;;;;
2022/12/18 12:21:00;;;;;;;9.4;5.6;;;;;;;;;;;;;
2022/12/18 12:23:25;;;;;;;9.2;5.7;;;;;;;;;;;;;
2022/12/18 12:25:50;;;;;;;9.8;6.4;;;;;;;;;;;;;
2022/12/18 12:28:16;;;;;;;8.9;6.3;;;;;;;;;;;;;
2022/12/18 12:30:41;;;;;;;8.3;5.7;;;;;;;;;;;;;
2022/12/18 12:33:06;;;;;;;11.6;7.3;;;;;;;;;;;;;
2022/12/18 12:35:31;;;;;;;8.6;5.3;;;;;;;;;;;;;
2022/12/18 12:37:56;;;;;;;10.5;6.3;;;;;;;;;;;;;
2022/12/18 12:40:23;;;;;;;14.9;8.1;;;;;;;;;;;;;
2022/12/18 12:45:13;;;;;;;9.1;6.4;;;;;;;;;;;;;
2022/12/18 12:47:39;;;;;;;9.5;5.7;;;;;;;;;;;;;
2022/12/18 12:50:04;;;;;;;9.4;6.1;;;;;;;;;;;;;
2022/12/18 12:52:30;;;;;;;9.5;5.8;;;;;;;;;;;;;
2022/12/18 12:54:54;;;;;;;9.7;5.9;;;;;;;;;;;;;
2022/12/18 12:57:19;;;;;;;9.8;5.5;;;;;;;;;;;;;
2022/12/18 12:59:46;;;;;;;8.5;4.8;;;;;;;;;;;;;
2022/12/18 13:02:11;;;;;;;10.2;5.7;;;;;;;;;;;;;
2022/12/18 13:04:36;;;;;;;8.7;5.8;;;;;;;;;;;;;
2022/12/18 13:07:01;;;;;;;10.9;6.5;;;;;;;;;;;;;
2022/12/18 13:09:27;;;;;;;8.7;5.5;;;;;;;;;;;;;
2022/12/18 13:14:17;;;;;;;10.6;6.9;;;;;;;;;;;;;
2022/12/18 13:16:42;;;;;;;11.4;6.9;;;;;;;;;;;;;
2022/12/18 13:19:07;;;;;;;11.1;7.7;;;;;;;;;;;;;
2022/12/18 13:21:33;;;;;;;11.5;7.4;;;;;;;;;;;;;
2022/12/18 13:23:58;;;;;;;8.9;6.2;;;;;;;;;;;;;
2022/12/18 13:26:23;;;;;;;11.9;7.4;;;;;;;;;;;;;
2022/12/18 13:28:48;;;;;;;13.3;7.5;;;;;;;;;;;;;
2022/12/18 13:31:13;;;;;;;11.2;6.7;;;;;;;;;;;;;
2022/12/18 13:33:39;;;;;;;7.2;4.9;;;;;;;;;;;;;
2022/12/18 13:36:04;;;;;;;7.1;4.7;;;;;;;;;;;;;
2022/12/18 13:38:29;;;;;;;6.1;4.6;;;;;;;;;;;;;
2022/12/18 13:40:54;;;;;;;6.6;4.7;;;;;;;;;;;;;
2022/12/18 13:43:19;;;;;;;7.4;5;;;;;;;;;;;;;
2022/12/18 13:45:45;;;;;;;24.1;14;;;;;;;;;;;;;
2022/12/18 13:48:10;;;;;;;25.6;14.5;;;;;;;;;;;;;
2022/12/18 13:50:35;;;;;;;26.7;14.9;;;;;;;;;;;;;
2022/12/18 13:53:00;;;;;;;29.3;15.5;;;;;;;;;;;;;
2022/12/18 13:55:28;;;;;;;26.3;15.3;;;;;;;;;;;;;
2022/12/18 13:57:53;;;;;;;24.9;15.5;;;;;;;;;;;;;
2022/12/18 14:00:18;;;;;;;28.6;15.5;;;;;;;;;;;;;
2022/12/18 14:02:44;;;;;;;29.2;15.5;;;;;;;;;;;;;
2022/12/18 14:05:09;;;;;;;29.7;15.2;;;;;;;;;;;;;
2022/12/18 14:07:37;;;;;;;29.6;15.3;;;;;;;;;;;;;
2022/12/18 14:10:08;;;;;;;29.9;15.6;;;;;;;;;;;;;
2022/12/18 14:14:58;;;;;;;28.9;15.3;;;;;;;;;;;;;
2022/12/18 14:17:23;;;;;;;27.1;13.9;;;;;;;;;;;;;
2022/12/18 14:19:50;;;;;;;30.7;15.7;;;;;;;;;;;;;
2022/12/18 14:22:15;;;;;;;26.9;14.7;;;;;;;;;;;;;
2022/12/18 14:24:42;;;;;;;28.3;14.4;;;;;;;;;;;;;
2022/12/18 14:27:07;;;;;;;29;15.4;;;;;;;;;;;;;
2022/12/18 14:29:34;;;;;;;27.9;15;;;;;;;;;;;;;
2022/12/18 14:32:00;;;;;;;32.1;16.1;;;;;;;;;;;;;
2022/12/18 14:34:25;;;;;;;31.4;16.3;;;;;;;;;;;;;
2022/12/18 14:36:50;;;;;;;29;15.6;;;;;;;;;;;;;
2022/12/18 14:39:15;;;;;;;32;16.6;;;;;;;;;;;;;
2022/12/18 14:41:42;;;;;;;30.6;15.8;;;;;;;;;;;;;
2022/12/18 14:44:07;;;;;;;32.7;16.3;;;;;;;;;;;;;
2022/12/18 14:46:32;;;;;;;30.3;15.3;;;;;;;;;;;;;
2022/12/18 14:48:58;;;;;;;32.6;17;;;;;;;;;;;;;
2022/12/18 14:51:23;;;;;;;31.4;16.6;;;;;;;;;;;;;
2022/12/18 14:53:48;;;;;;;30.2;15.9;;;;;;;;;;;;;
2022/12/18 14:56:13;;;;;;;31.3;16.2;;;;;;;;;;;;;
2022/12/18 14:58:40;;;;;;;31;16.7;;;;;;;;;;;;;
2022/12/18 15:01:05;;;;;;;32.3;16.6;;;;;;;;;;;;;
2022/12/18 15:03:31;;;;;;;31.8;15.9;;;;;;;;;;;;;
2022/12/18 15:05:56;;;;;;;32.9;16.5;;;;;;;;;;;;;
2022/12/18 15:08:21;;;;;;;30.9;15.7;;;;;;;;;;;;;
2022/12/18 15:10:47;;;;;;;29.5;15.6;;;;;;;;;;;;;
2022/12/18 15:13:14;;;;;;;31.6;16.1;;;;;;;;;;;;;
2022/12/18 15:15:40;;;;;;;31.2;16.2;;;;;;;;;;;;;
2022/12/18 15:18:06;;;;;;;33.9;16.8;;;;;;;;;;;;;
2022/12/18 15:20:29;;;;;;;33.7;18.6;;;;;;;;;;;;;
2022/12/18 15:22:56;;;;;;;37.7;18.8;;;;;;;;;;;;;
2022/12/18 15:25:21;;;;;;;35.9;19.4;;;;;;;;;;;;;
2022/12/18 15:27:47;;;;;;;42.7;22.3;;;;;;;;;;;;;
2022/12/18 15:30:18;;;;;;;40.1;21.5;;;;;;;;;;;;;
2022/12/18 15:32:43;;;;;;;43.5;24.1;;;;;;;;;;;;;
2022/12/18 15:35:10;;;;;;;42.3;24.1;;;;;;;;;;;;;
2022/12/18 15:37:38;;;;;;;55.7;34.9;;;;;;;;;;;;;
2022/12/18 15:40:03;;;;;;;42.8;26.5;;;;;;;;;;;;;
2022/12/18 15:44:59;;;;;;;47.5;30.1;;;;;;;;;;;;;
2022/12/18 15:47:33;;;;;;;55.8;34.7;;;;;;;;;;;;;
2022/12/18 15:49:58;;;;;;;48.4;29.9;;;;;;;;;;;;;
2022/12/18 15:52:25;;;;;;;38.8;26.5;;;;;;;;;;;;;
2022/12/18 15:57:25;;;;;;;43.5;27.6;;;;;;;;;;;;;
2022/12/18 15:59:41;;;;;;;43.5;29.2;;;;;;;;;;;;;
2022/12/18 16:02:06;;;;;;;41.1;26.9;;;;;;;;;;;;;
2022/12/18 16:04:32;;;;;;;42;25.9;;;;;;;;;;;;;
2022/12/18 16:06:57;;;;;;;44.3;29.6;;;;;;;;;;;;;
2022/12/18 16:09:22;;;;;;;55.5;36.5;;;;;;;;;;;;;
2022/12/18 16:11:48;;;;;;;53.9;34.7;;;;;;;;;;;;;
2022/12/18 16:14:13;;;;;;;51.6;32;;;;;;;;;;;;;
2022/12/18 16:16:39;;;;;;;46.6;28;;;;;;;;;;;;;
2022/12/18 16:19:04;;;;;;;41.4;26.4;;;;;;;;;;;;;
2022/12/18 16:21:31;;;;;;;39.8;25.4;;;;;;;;;;;;;
2022/12/18 16:23:56;;;;;;;46.8;28.4;;;;;;;;;;;;;
2022/12/18 16:26:21;;;;;;;46.5;28.8;;;;;;;;;;;;;
2022/12/18 16:28:46;;;;;;;38.6;24.9;;;;;;;;;;;;;
2022/12/18 16:31:12;;;;;;;37.3;23.7;;;;;;;;;;;;;
2022/12/18 16:33:37;;;;;;;39.1;24.2;;;;;;;;;;;;;
2022/12/18 16:36:02;;;;;;;39.5;25.6;;;;;;;;;;;;;
2022/12/18 16:38:27;;;;;;;33;22.9;;;;;;;;;;;;;
2022/12/18 16:43:19;;;;;;;41.6;26.1;;;;;;;;;;;;;
2022/12/18 16:45:44;;;;;;;46.5;28;;;;;;;;;;;;;
2022/12/18 16:48:09;;;;;;;44.5;27.8;;;;;;;;;;;;;
2022/12/18 16:50:34;;;;;;;46.4;29.3;;;;;;;;;;;;;
2022/12/18 16:52:59;;;;;;;48.4;31.7;;;;;;;;;;;;;
2022/12/18 16:55:29;;;;;;;52.9;33.3;;;;;;;;;;;;;
2022/12/18 16:57:56;;;;;;;51.9;30.9;;;;;;;;;;;;;
2022/12/18 17:00:21;;;;;;;42.4;27.8;;;;;;;;;;;;;
2022/12/18 17:02:48;;;;;;;51.5;32.1;;;;;;;;;;;;;
2022/12/18 17:05:13;;;;;;;53.8;33.5;;;;;;;;;;;;;
2022/12/18 17:07:38;;;;;;;65.1;35.1;;;;;;;;;;;;;